Time;durP1;ratioP1;P1;durP2;ratioP2;P2;SDS_P1;SDS_P2;PMS_P1;PMS_P2;Temp;Humidity;BMP_temperature;BMP_pressure;BME280_temperature;BME280_humidity;BME280_pressure;Samples;Min_cycle;Max_cycle;Signal;HPM_P1;HPM_P2
2021/05/12 00:00:30;;;;;;;1.40;1.30;;;22.00;53.40;;;;;;5108558;28;20032;-42
2021/05/12 00:02:56;;;;;;;1.30;1.17;;;22.00;54.10;;;;;;5110343;28;20026;-44
2021/05/12 00:05:23;;;;;;;1.23;1.10;;;22.00;53.50;;;;;;5110976;28;20405;-43
2021/05/12 00:07:48;;;;;;;1.35;1.20;;;22.00;53.40;;;;;;5109964;28;20024;-43
2021/05/12 00:10:14;;;;;;;2.85;1.33;;;22.00;53.40;;;;;;5092648;28;20394;-40
2021/05/12 00:12:40;;;;;;;1.33;1.20;;;22.00;53.30;;;;;;5108331;28;20023;-41
2021/05/12 00:15:08;;;;;;;1.60;1.50;;;22.00;53.90;;;;;;5108038;28;20027;-40
2021/05/12 00:17:35;;;;;;;1.40;1.30;;;22.00;53.30;;;;;;5090778;28;20584;-43
2021/05/12 00:20:02;;;;;;;1.17;1.08;;;22.00;53.10;;;;;;5111272;28;20125;-40
2021/05/12 00:25:11;;;;;;;1.25;1.15;;;21.90;53.20;;;;;;5108034;28;20038;-43
2021/05/12 00:27:37;;;;;;;1.00;1.00;;;21.90;53.30;;;;;;5092655;28;20432;-45
2021/05/12 00:30:05;;;;;;;1.45;1.17;;;21.90;53.40;;;;;;5108126;28;20046;-44
2021/05/12 00:32:31;;;;;;;1.25;1.00;;;21.90;53.40;;;;;;5109200;28;20027;-44
2021/05/12 00:34:56;;;;;;;1.42;1.25;;;21.90;53.10;;;;;;5110531;28;20031;-43
2021/05/12 00:37:22;;;;;;;1.38;1.10;;;21.90;53.20;;;;;;5109088;28;20510;-41
2021/05/12 00:39:47;;;;;;;1.08;1.00;;;21.90;53.20;;;;;;5107882;28;20114;-40
2021/05/12 00:42:13;;;;;;;1.30;1.05;;;21.90;53.10;;;;;;5107155;28;20401;-41
2021/05/12 00:44:39;;;;;;;1.27;1.13;;;21.90;52.90;;;;;;5108154;28;20058;-44
2021/05/12 00:47:05;;;;;;;1.20;1.10;;;22.00;52.80;;;;;;5111382;28;20084;-41
2021/05/12 00:49:31;;;;;;;1.50;1.20;;;21.90;53.00;;;;;;5107348;28;20405;-42
2021/05/12 00:51:57;;;;;;;1.00;0.90;;;21.90;53.20;;;;;;5107383;28;20034;-44
2021/05/12 00:54:22;;;;;;;1.10;1.00;;;21.90;53.20;;;;;;5107501;28;20020;-41
2021/05/12 00:56:48;;;;;;;1.63;1.20;;;21.90;53.00;;;;;;5107075;28;20090;-40
2021/05/12 00:59:14;;;;;;;1.15;0.93;;;21.90;52.80;;;;;;5110777;28;20023;-41
2021/05/12 01:01:39;;;;;;;1.20;0.95;;;22.00;52.70;;;;;;5089863;28;20028;-42
2021/05/12 01:04:07;;;;;;;1.88;1.00;;;22.00;53.00;;;;;;5108921;28;20519;-45
2021/05/12 01:06:36;;;;;;;1.35;1.10;;;21.90;52.80;;;;;;5107176;28;20510;-43
2021/05/12 01:09:04;;;;;;;1.25;0.93;;;21.90;53.00;;;;;;5075098;28;20031;-42
2021/05/12 01:11:30;;;;;;;1.20;1.02;;;21.80;53.00;;;;;;5108770;28;20693;-40
2021/05/12 01:13:56;;;;;;;1.10;1.00;;;21.90;52.90;;;;;;5108931;28;20023;-43
2021/05/12 01:16:22;;;;;;;1.10;1.00;;;21.80;53.50;;;;;;5108462;28;20035;-42
2021/05/12 01:18:48;;;;;;;1.10;0.90;;;21.80;53.20;;;;;;5106982;28;20023;-43
2021/05/12 01:21:13;;;;;;;1.58;1.30;;;21.90;52.80;;;;;;5107209;28;20055;-42
2021/05/12 01:23:41;;;;;;;0.90;0.90;;;21.80;52.80;;;;;;5107571;28;20039;-42
2021/05/12 01:26:08;;;;;;;1.25;0.85;;;21.90;52.70;;;;;;5110875;28;20145;-42
2021/05/12 01:28:35;;;;;;;0.88;0.80;;;21.90;53.00;;;;;;5089140;28;20032;-47
2021/05/12 01:31:03;;;;;;;1.17;1.08;;;21.90;52.90;;;;;;5103301;28;20034;-43
2021/05/12 01:33:29;;;;;;;1.52;0.90;;;21.80;52.90;;;;;;5106597;28;20030;-42
2021/05/12 01:35:54;;;;;;;1.10;1.00;;;21.90;52.80;;;;;;5106680;28;20027;-43
2021/05/12 01:38:20;;;;;;;1.52;0.88;;;21.90;52.70;;;;;;5109287;28;20132;-40
2021/05/12 01:40:46;;;;;;;0.65;0.65;;;21.80;52.90;;;;;;5108392;28;20019;-42
2021/05/12 01:43:12;;;;;;;1.10;0.75;;;21.80;52.80;;;;;;5106432;28;20031;-42
2021/05/12 01:45:38;;;;;;;1.35;1.10;;;21.80;52.80;;;;;;5106577;28;20030;-41
2021/05/12 01:48:07;;;;;;;1.17;0.90;;;21.80;52.80;;;;;;5106908;28;20024;-42
2021/05/12 01:50:33;;;;;;;0.98;0.88;;;21.80;52.90;;;;;;5073468;28;20078;-42
2021/05/12 01:52:58;;;;;;;1.00;0.90;;;21.80;52.80;;;;;;5109332;28;20056;-42
2021/05/12 01:55:24;;;;;;;0.70;0.70;;;21.80;52.60;;;;;;5107838;28;20027;-42
2021/05/12 01:57:49;;;;;;;1.33;0.85;;;21.80;53.50;;;;;;5106119;28;20077;-45
2021/05/12 02:00:20;;;;;;;1.08;0.80;;;21.80;52.50;;;;;;5106050;28;20064;-42
2021/05/12 02:02:45;;;;;;;0.98;0.70;;;21.80;52.70;;;;;;5108288;28;20023;-43
2021/05/12 02:05:11;;;;;;;0.70;0.70;;;21.80;52.70;;;;;;5110599;28;20020;-44
2021/05/12 02:07:36;;;;;;;0.70;0.70;;;21.80;52.60;;;;;;5105213;28;20028;-42
2021/05/12 02:10:02;;;;;;;0.77;0.73;;;21.80;52.70;;;;;;5106369;28;20383;-43
2021/05/12 02:12:28;;;;;;;1.88;0.77;;;21.80;52.80;;;;;;5106237;28;20040;-46
2021/05/12 02:14:53;;;;;;;1.05;1.02;;;21.80;52.70;;;;;;5106522;28;20554;-41
2021/05/12 02:17:19;;;;;;;0.80;0.80;;;21.70;52.70;;;;;;5108570;28;20126;-42
2021/05/12 02:19:45;;;;;;;1.20;0.90;;;21.70;52.90;;;;;;5108033;28;20624;-39
2021/05/12 02:22:10;;;;;;;1.23;0.95;;;21.70;52.70;;;;;;5106121;28;20028;-42
2021/05/12 02:24:36;;;;;;;0.88;0.70;;;21.70;53.40;;;;;;5106053;28;20027;-43
2021/05/12 02:27:02;;;;;;;0.93;0.82;;;21.70;53.40;;;;;;5106287;28;20031;-42
2021/05/12 02:29:27;;;;;;;1.20;1.00;;;21.70;52.80;;;;;;5108236;28;20382;-44
2021/05/12 02:31:53;;;;;;;1.80;1.00;;;21.70;52.90;;;;;;5108039;28;20116;-44
2021/05/12 02:34:18;;;;;;;0.80;0.73;;;21.60;52.90;;;;;;5107427;28;20038;-43
2021/05/12 02:36:44;;;;;;;0.57;0.47;;;21.70;52.70;;;;;;5106053;28;20511;-44
2021/05/12 02:39:09;;;;;;;1.63;0.88;;;21.70;52.70;;;;;;5106108;28;20071;-39
2021/05/12 02:41:35;;;;;;;1.00;0.90;;;21.70;53.40;;;;;;5106217;28;20032;-40
2021/05/12 02:44:00;;;;;;;1.52;0.90;;;21.70;52.80;;;;;;5109021;28;20081;-46
2021/05/12 02:46:26;;;;;;;1.30;0.90;;;21.80;53.30;;;;;;5090409;28;20069;-41
2021/05/12 02:48:51;;;;;;;0.95;0.80;;;21.70;52.60;;;;;;5105665;28;20073;-41
2021/05/12 02:51:17;;;;;;;0.75;0.75;;;21.80;52.60;;;;;;5105802;28;20035;-41
2021/05/12 02:53:43;;;;;;;0.73;0.73;;;21.80;52.50;;;;;;5088528;28;20030;-44
2021/05/12 02:56:08;;;;;;;1.00;0.77;;;21.80;53.00;;;;;;5070100;28;20058;-42
2021/05/12 02:58:34;;;;;;;1.08;0.75;;;21.80;53.10;;;;;;5107894;28;20063;-43
2021/05/12 03:01:00;;;;;;;1.05;0.77;;;21.70;52.50;;;;;;5105864;28;20031;-43
2021/05/12 03:03:25;;;;;;;0.90;0.65;;;21.70;52.50;;;;;;5107516;28;20031;-43
2021/05/12 03:05:51;;;;;;;2.00;0.70;;;21.70;53.30;;;;;;5107255;28;20039;-43
2021/05/12 03:08:17;;;;;;;0.82;0.70;;;21.70;52.50;;;;;;5102321;28;20040;-43
2021/05/12 03:10:42;;;;;;;0.90;0.80;;;21.70;52.50;;;;;;5103217;28;20027;-41
2021/05/12 03:13:08;;;;;;;1.00;0.80;;;21.70;52.60;;;;;;5103979;28;20020;-40
2021/05/12 03:15:34;;;;;;;0.55;0.50;;;21.70;52.50;;;;;;5102094;28;20027;-41
2021/05/12 03:17:59;;;;;;;0.80;0.68;;;21.70;52.50;;;;;;5100638;28;20290;-42
2021/05/12 03:20:26;;;;;;;0.70;0.60;;;21.70;52.50;;;;;;5104072;28;20497;-43
2021/05/12 03:22:51;;;;;;;0.80;0.68;;;21.70;52.40;;;;;;5105255;28;20024;-43
2021/05/12 03:25:17;;;;;;;0.73;0.60;;;21.70;52.50;;;;;;5108939;28;20024;-44
2021/05/12 03:27:43;;;;;;;0.80;0.60;;;21.70;52.60;;;;;;5108807;28;20055;-43
2021/05/12 03:30:14;;;;;;;0.85;0.77;;;21.70;52.40;;;;;;5110518;28;20059;-42
2021/05/12 03:32:40;;;;;;;0.60;0.50;;;21.70;52.40;;;;;;5110632;28;20998;-43
2021/05/12 03:35:06;;;;;;;0.68;0.63;;;21.70;52.40;;;;;;5112126;28;20019;-45
2021/05/12 03:37:31;;;;;;;0.70;0.70;;;21.80;52.30;;;;;;5108854;28;20085;-43
2021/05/12 03:39:57;;;;;;;0.80;0.80;;;21.70;52.30;;;;;;5107836;28;20044;-44
2021/05/12 03:42:23;;;;;;;1.25;0.70;;;21.70;52.40;;;;;;5108815;28;20038;-40
2021/05/12 03:44:48;;;;;;;0.70;0.70;;;21.70;52.20;;;;;;5109177;28;20024;-42
2021/05/12 03:47:14;;;;;;;1.10;0.77;;;21.70;52.40;;;;;;5094169;28;20024;-42
2021/05/12 03:49:39;;;;;;;0.70;0.60;;;21.70;52.90;;;;;;5109795;28;20024;-43
2021/05/12 03:52:05;;;;;;;1.05;0.80;;;21.80;52.10;;;;;;5092260;28;20165;-44
2021/05/12 03:54:30;;;;;;;0.60;0.60;;;21.80;52.20;;;;;;5108538;28;20394;-42
2021/05/12 03:56:56;;;;;;;0.82;0.70;;;21.80;52.20;;;;;;5110501;28;20378;-44
2021/05/12 03:59:22;;;;;;;0.80;0.70;;;21.70;52.30;;;;;;5110025;28;20497;-44
2021/05/12 04:01:47;;;;;;;0.60;0.60;;;21.70;52.20;;;;;;5111563;28;20106;-44
2021/05/12 04:04:15;;;;;;;2.55;0.80;;;21.70;52.30;;;;;;5108031;28;20478;-44
2021/05/12 04:06:43;;;;;;;0.98;0.68;;;21.70;52.30;;;;;;5109626;28;20513;-40
2021/05/12 04:09:08;;;;;;;0.80;0.80;;;21.70;52.10;;;;;;5108129;28;20027;-39
2021/05/12 04:11:34;;;;;;;0.75;0.70;;;21.80;51.90;;;;;;5102905;28;20035;-43
2021/05/12 04:14:00;;;;;;;0.80;0.80;;;21.80;52.10;;;;;;5102290;28;20041;-45
2021/05/12 04:16:25;;;;;;;0.63;0.63;;;21.80;51.90;;;;;;5108506;28;20122;-43
2021/05/12 04:18:51;;;;;;;0.80;0.70;;;21.80;51.90;;;;;;5100503;28;20024;-42
2021/05/12 04:21:16;;;;;;;0.60;0.60;;;21.80;52.00;;;;;;5099872;28;20071;-41
2021/05/12 04:23:42;;;;;;;1.52;0.80;;;21.80;52.00;;;;;;5107865;28;20016;-39
2021/05/12 04:26:08;;;;;;;0.88;0.80;;;21.90;52.00;;;;;;5111370;28;20031;-43
2021/05/12 04:28:33;;;;;;;1.77;0.70;;;21.90;52.70;;;;;;5107807;28;20043;-42
2021/05/12 04:30:59;;;;;;;0.80;0.68;;;22.00;53.00;;;;;;5105517;28;20571;-43
2021/05/12 04:33:24;;;;;;;0.57;0.50;;;22.00;52.60;;;;;;5104920;28;20020;-42
2021/05/12 04:35:50;;;;;;;0.68;0.50;;;22.00;51.90;;;;;;5100303;28;20107;-42
2021/05/12 04:38:15;;;;;;;0.80;0.73;;;21.80;53.20;;;;;;5100730;28;20044;-42
2021/05/12 04:40:41;;;;;;;1.10;0.50;;;21.80;53.00;;;;;;5108653;28;20024;-44
2021/05/12 04:43:07;;;;;;;0.70;0.70;;;21.90;52.60;;;;;;5105642;28;20027;-43
2021/05/12 04:45:32;;;;;;;0.68;0.57;;;22.10;53.20;;;;;;5088276;28;20053;-43
2021/05/12 04:47:58;;;;;;;0.70;0.50;;;22.10;53.00;;;;;;5105600;28;20481;-42
2021/05/12 04:50:28;;;;;;;0.95;0.60;;;22.20;53.10;;;;;;5099432;28;20036;-45
2021/05/12 04:52:54;;;;;;;2.03;0.85;;;22.20;52.60;;;;;;5082293;28;20046;-46
2021/05/12 04:55:19;;;;;;;1.55;0.98;;;22.30;53.40;;;;;;5068784;28;20676;-45
2021/05/12 04:57:45;;;;;;;3.60;1.33;;;22.20;53.60;;;;;;5099731;28;20035;-44
2021/05/12 05:00:13;;;;;;;3.70;1.55;;;22.30;54.10;;;;;;5098822;28;20050;-45
2021/05/12 05:02:39;;;;;;;3.08;1.40;;;22.20;53.90;;;;;;5099601;28;20435;-45
2021/05/12 05:05:07;;;;;;;4.60;2.08;;;22.30;54.20;;;;;;5089038;28;20023;-41
2021/05/12 05:07:33;;;;;;;3.75;1.75;;;22.30;54.20;;;;;;5096001;28;20562;-44
2021/05/12 05:10:01;;;;;;;3.25;1.58;;;22.30;54.10;;;;;;5078702;28;20024;-43
2021/05/12 05:12:27;;;;;;;5.18;1.88;;;22.30;54.50;;;;;;5095814;28;20448;-44
2021/05/12 05:14:52;;;;;;;2.92;1.58;;;22.30;53.60;;;;;;5098525;28;20031;-43
2021/05/12 05:17:18;;;;;;;2.67;1.38;;;22.40;53.40;;;;;;5096650;28;20039;-43
2021/05/12 05:19:44;;;;;;;3.08;1.27;;;22.40;53.20;;;;;;5100463;28;20032;-45
2021/05/12 05:22:11;;;;;;;2.35;1.65;;;22.40;53.10;;;;;;5084393;28;20776;-43
2021/05/12 05:24:38;;;;;;;2.63;1.60;;;22.40;53.80;;;;;;5098572;28;20032;-44
2021/05/12 05:27:04;;;;;;;1.40;1.30;;;22.40;53.00;;;;;;5098815;28;20566;-43
2021/05/12 05:29:30;;;;;;;1.40;1.10;;;22.40;52.90;;;;;;5095114;28;20031;-48
2021/05/12 05:31:55;;;;;;;4.20;1.20;;;22.40;52.70;;;;;;5082909;28;20520;-47
2021/05/12 05:34:21;;;;;;;2.20;1.08;;;22.30;52.70;;;;;;5099097;28;20028;-43
2021/05/12 05:36:46;;;;;;;1.10;1.00;;;22.30;52.60;;;;;;5097784;28;20577;-46
2021/05/12 05:39:12;;;;;;;3.00;1.08;;;22.30;52.60;;;;;;5098019;28;20047;-46
2021/05/12 05:41:38;;;;;;;1.85;1.17;;;22.20;52.50;;;;;;5092621;28;20397;-47
2021/05/12 05:44:03;;;;;;;2.72;1.20;;;22.20;52.80;;;;;;5097578;28;20147;-43
2021/05/12 05:46:29;;;;;;;2.55;0.98;;;22.10;52.60;;;;;;5101264;28;20030;-45
2021/05/12 05:48:55;;;;;;;1.65;1.25;;;22.20;52.70;;;;;;5101446;28;20015;-45
2021/05/12 05:51:21;;;;;;;1.13;1.02;;;22.20;52.60;;;;;;5093437;28;20032;-46
2021/05/12 05:53:47;;;;;;;2.25;1.30;;;22.20;52.90;;;;;;5098350;28;20023;-47
2021/05/12 05:56:12;;;;;;;2.55;1.30;;;22.20;52.60;;;;;;5100385;28;20035;-45
2021/05/12 05:58:38;;;;;;;1.98;1.20;;;22.00;53.10;;;;;;5105941;28;20020;-49
2021/05/12 06:01:03;;;;;;;1.08;0.80;;;22.10;53.30;;;;;;5099641;28;20099;-44
2021/05/12 06:03:29;;;;;;;3.13;0.88;;;22.10;53.40;;;;;;5099552;28;20024;-46
2021/05/12 06:05:55;;;;;;;5.32;1.17;;;22.20;53.60;;;;;;5100584;28;20116;-48
2021/05/12 06:08:20;;;;;;;1.55;0.90;;;22.20;53.20;;;;;;5103437;28;20027;-47
2021/05/12 06:10:46;;;;;;;1.95;1.27;;;22.20;53.30;;;;;;5101935;28;20043;-46
2021/05/12 06:13:11;;;;;;;2.80;1.05;;;22.30;53.30;;;;;;5102252;28;20089;-47
2021/05/12 06:15:39;;;;;;;3.92;1.30;;;21.90;54.10;;;;;;5098379;28;20023;-41
2021/05/12 06:18:06;;;;;;;3.28;1.40;;;21.80;54.80;;;;;;5097170;28;20036;-47
2021/05/12 06:20:31;;;;;;;2.55;1.00;;;21.70;55.20;;;;;;5098042;28;20626;-45
2021/05/12 06:23:01;;;;;;;7.47;1.15;;;21.70;55.40;;;;;;5105811;28;20063;-42
2021/05/12 06:25:27;;;;;;;2.30;1.10;;;21.80;55.20;;;;;;5087001;28;20035;-51
2021/05/12 06:27:52;;;;;;;1.63;1.13;;;22.00;54.70;;;;;;5096079;28;20547;-44
2021/05/12 06:30:18;;;;;;;4.93;1.20;;;22.20;54.30;;;;;;5102581;28;20132;-42
2021/05/12 06:32:43;;;;;;;4.03;1.10;;;22.30;54.00;;;;;;5102081;28;20077;-42
2021/05/12 06:35:09;;;;;;;2.45;1.10;;;22.40;53.90;;;;;;5100804;28;20033;-43
2021/05/12 06:37:35;;;;;;;4.50;1.30;;;22.30;54.20;;;;;;5104050;28;20047;-43
2021/05/12 06:40:01;;;;;;;4.53;1.00;;;22.20;54.30;;;;;;5101949;28;20047;-43
2021/05/12 06:42:26;;;;;;;3.10;1.00;;;22.20;54.10;;;;;;5100255;28;20032;-43
2021/05/12 06:44:52;;;;;;;1.58;1.17;;;22.10;54.50;;;;;;5102367;28;20024;-42
2021/05/12 06:47:17;;;;;;;3.33;1.05;;;22.10;54.60;;;;;;5104401;28;20038;-43
2021/05/12 06:49:43;;;;;;;1.70;1.20;;;22.00;55.20;;;;;;5103539;28;20515;-39
2021/05/12 06:52:08;;;;;;;1.83;0.75;;;22.10;54.70;;;;;;5102020;28;20032;-39
2021/05/12 06:54:34;;;;;;;2.35;1.20;;;22.10;54.40;;;;;;5089316;28;20031;-41
2021/05/12 06:56:59;;;;;;;3.90;1.00;;;22.00;54.70;;;;;;5106211;28;20493;-43
2021/05/12 06:59:25;;;;;;;1.33;1.10;;;21.90;55.30;;;;;;5108443;28;20035;-41
2021/05/12 07:01:52;;;;;;;1.63;1.20;;;21.80;55.20;;;;;;5109596;28;20031;-41
2021/05/12 07:04:18;;;;;;;3.65;0.85;;;21.90;55.40;;;;;;5107690;28;20409;-40
2021/05/12 07:06:43;;;;;;;3.03;1.35;;;21.90;55.20;;;;;;4754103;28;10000106;-40
2021/05/12 07:09:09;;;;;;;1.88;0.98;;;21.80;55.70;;;;;;5109831;28;20389;-37
2021/05/12 07:11:34;;;;;;;2.08;1.00;;;21.80;55.20;;;;;;5108764;28;20043;-39
2021/05/12 07:14:00;;;;;;;3.83;0.80;;;21.80;55.20;;;;;;5111934;28;20023;-40
2021/05/12 07:16:26;;;;;;;2.35;0.90;;;21.70;55.30;;;;;;5108736;28;20038;-40
2021/05/12 07:18:51;;;;;;;1.63;0.95;;;21.70;55.50;;;;;;5110334;28;20607;-40
2021/05/12 07:21:17;;;;;;;2.10;1.15;;;21.80;55.40;;;;;;5108333;28;20031;-40
2021/05/12 07:23:44;;;;;;;2.20;0.80;;;21.70;55.70;;;;;;5110611;28;20016;-40
2021/05/12 07:26:13;;;;;;;1.00;0.90;;;21.70;55.50;;;;;;5108627;28;20035;-40
2021/05/12 07:28:38;;;;;;;1.20;0.82;;;21.80;55.50;;;;;;5093483;28;20101;-42
2021/05/12 07:31:04;;;;;;;1.00;0.77;;;21.90;54.90;;;;;;5106958;28;20521;-42
2021/05/12 07:33:29;;;;;;;2.38;0.60;;;22.00;55.10;;;;;;5109724;28;20039;-41
2021/05/12 07:35:55;;;;;;;1.73;1.13;;;21.90;55.00;;;;;;5108315;28;20024;-42
2021/05/12 07:38:21;;;;;;;1.50;0.90;;;21.80;55.30;;;;;;5110810;28;20054;-42
2021/05/12 07:40:46;;;;;;;1.20;0.80;;;21.70;55.30;;;;;;5110030;28;20028;-42
2021/05/12 07:43:12;;;;;;;1.85;0.90;;;21.70;55.30;;;;;;5108548;28;20481;-42
2021/05/12 07:45:39;;;;;;;1.92;1.10;;;21.60;55.40;;;;;;5108405;28;20039;-43
2021/05/12 07:48:06;;;;;;;4.07;0.80;;;21.60;55.70;;;;;;5108541;28;20106;-45
2021/05/12 07:50:31;;;;;;;1.20;0.90;;;21.50;56.40;;;;;;5074050;28;20028;-41
2021/05/12 07:52:58;;;;;;;1.95;1.20;;;21.50;55.90;;;;;;5094223;28;20038;-40
2021/05/12 07:55:24;;;;;;;1.42;0.73;;;21.60;55.80;;;;;;5107837;28;20020;-40
2021/05/12 07:57:50;;;;;;;1.85;0.80;;;21.70;55.40;;;;;;5108329;28;20102;-42
2021/05/12 08:00:16;;;;;;;1.05;0.65;;;21.80;55.10;;;;;;5108019;28;20028;-41
2021/05/12 08:02:41;;;;;;;1.50;1.00;;;21.70;55.30;;;;;;5110119;28;20019;-45
2021/05/12 08:05:08;;;;;;;1.25;0.80;;;21.80;55.00;;;;;;5110415;28;20107;-42
2021/05/12 08:07:33;;;;;;;1.65;0.77;;;21.90;54.80;;;;;;5109752;28;20067;-40
2021/05/12 08:09:59;;;;;;;2.53;0.82;;;22.00;54.50;;;;;;5089095;28;20101;-46
2021/05/12 08:12:25;;;;;;;0.82;0.82;;;22.00;54.40;;;;;;5097315;28;20036;-42
2021/05/12 08:14:51;;;;;;;1.88;0.90;;;22.00;54.10;;;;;;5108125;28;20020;-45
2021/05/12 08:17:16;;;;;;;1.35;0.70;;;22.10;53.70;;;;;;5111640;28;20051;-45
2021/05/12 08:19:42;;;;;;;1.45;0.73;;;22.30;53.60;;;;;;5108902;28;20551;-42
2021/05/12 08:22:08;;;;;;;1.80;1.25;;;22.30;53.50;;;;;;5107299;28;20028;-40
2021/05/12 08:24:34;;;;;;;2.58;0.73;;;22.30;53.50;;;;;;5108916;28;20037;-44
2021/05/12 08:27:04;;;;;;;0.85;0.70;;;22.30;53.40;;;;;;5108074;28;20028;-41
2021/05/12 08:29:30;;;;;;;0.90;0.68;;;22.30;53.40;;;;;;5109490;28;20077;-35
2021/05/12 08:31:59;;;;;;;2.22;0.63;;;22.40;53.30;;;;;;5093208;28;20108;-36
2021/05/12 08:34:28;;;;;;;1.45;0.85;;;22.40;53.20;;;;;;5092232;28;20059;-43
2021/05/12 08:36:57;;;;;;;1.77;0.70;;;22.40;53.10;;;;;;5107368;28;20055;-39
2021/05/12 08:39:22;;;;;;;0.85;0.60;;;22.40;53.10;;;;;;5091955;28;20059;-40
2021/05/12 08:41:49;;;;;;;0.77;0.70;;;22.40;53.00;;;;;;5107837;28;20485;-43
2021/05/12 08:44:14;;;;;;;0.70;0.47;;;22.50;52.90;;;;;;5110758;28;20024;-42
2021/05/12 08:46:40;;;;;;;0.88;0.70;;;22.50;52.80;;;;;;5109535;28;20031;-42
2021/05/12 08:49:06;;;;;;;1.20;0.80;;;22.60;53.40;;;;;;5107397;28;20019;-42
2021/05/12 08:51:32;;;;;;;0.88;0.50;;;22.60;52.70;;;;;;5091217;28;20106;-40
2021/05/12 08:53:58;;;;;;;2.38;0.63;;;22.60;52.80;;;;;;5091871;28;20493;-41
2021/05/12 08:56:23;;;;;;;1.17;0.88;;;22.50;53.00;;;;;;5109792;28;20024;-42
2021/05/12 08:58:49;;;;;;;0.80;0.60;;;22.50;53.00;;;;;;5108820;28;20769;-39
2021/05/12 09:01:18;;;;;;;2.33;1.17;;;22.40;54.00;;;;;;5106987;28;20027;-42
2021/05/12 09:03:44;;;;;;;0.93;0.82;;;22.30;53.70;;;;;;5109133;28;20019;-43
2021/05/12 09:06:09;;;;;;;2.13;0.65;;;22.30;53.50;;;;;;5091467;28;20034;-44
2021/05/12 09:08:35;;;;;;;2.08;0.60;;;22.30;53.20;;;;;;5090144;28;20127;-41
2021/05/12 09:11:00;;;;;;;0.82;0.50;;;22.30;53.20;;;;;;5092755;28;20027;-43
2021/05/12 09:13:41;;;;;;;0.75;0.40;;;22.40;53.10;;;;;;5088791;28;20055;-42
2021/05/12 09:16:23;;;;;;;1.45;0.70;;;22.40;53.10;;;;;;5101779;28;20541;-43
2021/05/12 09:18:59;;;;;;;1.48;0.52;;;22.50;52.90;;;;;;5105984;28;20104;-42
2021/05/12 09:21:41;;;;;;;0.68;0.50;;;22.50;53.40;;;;;;5106909;28;20063;-43
2021/05/12 09:24:31;;;;;;;0.63;0.60;;;22.50;52.80;;;;;;5075741;28;20023;-43
2021/05/12 09:27:09;;;;;;;1.08;0.73;;;22.50;53.50;;;;;;5089126;28;20039;-39
2021/05/12 09:29:37;;;;;;;0.75;0.60;;;22.40;53.40;;;;;;5106523;28;20043;-42
2021/05/12 09:32:10;;;;;;;0.50;0.43;;;22.20;53.90;;;;;;5109935;28;20031;-43
2021/05/12 09:35:14;;;;;;;0.63;0.43;;;22.00;54.20;;;;;;5106264;28;20115;-40
2021/05/12 09:37:43;;;;;;;0.63;0.63;;;21.90;54.50;;;;;;5108413;28;20127;-42
2021/05/12 09:40:16;;;;;;;0.60;0.60;;;21.90;54.50;;;;;;5090508;28;20039;-44
2021/05/12 09:42:42;;;;;;;0.77;0.57;;;22.00;54.60;;;;;;5105599;28;20027;-43
2021/05/12 09:45:24;;;;;;;1.65;0.40;;;21.90;54.60;;;;;;5106825;28;20546;-44
2021/05/12 09:47:51;;;;;;;0.90;0.70;;;22.00;54.30;;;;;;5105834;28;20510;-40
2021/05/12 09:50:23;;;;;;;0.60;0.55;;;22.10;54.40;;;;;;5109728;28;20023;-42
2021/05/12 09:52:59;;;;;;;0.80;0.60;;;22.10;54.00;;;;;;5090862;28;20028;-39
2021/05/12 09:55:42;;;;;;;0.68;0.60;;;22.10;54.20;;;;;;5104742;28;20402;-42
2021/05/12 09:58:09;;;;;;;0.60;0.60;;;22.00;54.20;;;;;;5099990;28;20020;-44
2021/05/12 10:00:39;;;;;;;0.88;0.50;;;22.00;54.30;;;;;;5098852;28;20053;-39
2021/05/12 10:03:05;;;;;;;1.35;0.60;;;22.00;54.30;;;;;;5108079;28;20088;-42
2021/05/12 10:06:09;;;;;;;0.50;0.50;;;22.10;54.30;;;;;;5108276;28;20051;-45
2021/05/12 10:08:35;;;;;;;0.80;0.68;;;22.20;53.90;;;;;;5065862;28;20427;-43
2021/05/12 10:11:07;;;;;;;0.57;0.43;;;22.20;53.90;;;;;;5066616;28;20048;-41
2021/05/12 10:13:34;;;;;;;0.60;0.43;;;22.20;53.90;;;;;;5065217;28;20793;-42
2021/05/12 10:16:00;;;;;;;0.88;0.60;;;22.20;54.00;;;;;;5065651;28;20029;-44
2021/05/12 10:18:25;;;;;;;0.75;0.63;;;22.00;54.30;;;;;;5049020;28;20550;-41
2021/05/12 10:20:56;;;;;;;0.60;0.50;;;22.00;54.50;;;;;;5066046;28;20036;-39
2021/05/12 10:23:22;;;;;;;0.52;0.43;;;21.90;55.30;;;;;;5065626;28;20021;-42
2021/05/12 10:25:48;;;;;;;0.60;0.60;;;21.90;54.50;;;;;;5041664;28;20090;-43
2021/05/12 10:28:13;;;;;;;0.63;0.45;;;22.00;54.40;;;;;;5060464;28;20437;-40
2021/05/12 10:30:39;;;;;;;1.42;0.70;;;22.20;54.40;;;;;;5066764;28;20149;-45
2021/05/12 10:33:08;;;;;;;1.38;0.50;;;22.20;53.50;;;;;;5033983;28;20048;-40
2021/05/12 10:35:38;;;;;;;1.10;0.60;;;22.30;53.60;;;;;;5069667;28;20028;-37
2021/05/12 10:38:04;;;;;;;2.83;0.70;;;22.10;53.90;;;;;;5066617;28;20048;-41
2021/05/12 10:40:40;;;;;;;0.52;0.52;;;22.10;54.20;;;;;;5107966;28;20054;-40
2021/05/12 10:46:16;;;;;;;0.50;0.50;;;22.00;55.00;;;;;;5097010;28;20063;-44
2021/05/12 10:48:48;;;;;;;1.05;0.70;;;22.10;54.30;;;;;;5108892;28;20489;-42
2021/05/12 10:51:23;;;;;;;0.60;0.40;;;22.10;53.70;;;;;;5094015;28;20020;-43
2021/05/12 10:53:50;;;;;;;1.42;0.50;;;22.10;54.10;;;;;;5109286;28;20397;-46
2021/05/12 10:56:16;;;;;;;1.60;0.65;;;22.10;54.30;;;;;;5112817;28;20466;-42
2021/05/12 10:59:07;;;;;;;0.77;0.60;;;22.10;54.30;;;;;;5110925;28;20228;-40
2021/05/12 11:01:41;;;;;;;1.08;0.68;;;22.20;54.60;;;;;;5106629;28;20106;-38
2021/05/12 11:04:10;;;;;;;1.52;0.57;;;22.10;54.30;;;;;;4750739;28;9999773;-43
2021/05/12 11:06:39;;;;;;;2.35;0.60;;;22.20;54.40;;;;;;5104568;28;20089;-40
2021/05/12 11:09:17;;;;;;;2.08;0.93;;;22.30;54.10;;;;;;5107827;28;20032;-41
2021/05/12 11:11:48;;;;;;;3.97;0.80;;;22.40;53.80;;;;;;5097375;28;20462;-40
2021/05/12 11:14:33;;;;;;;2.15;0.70;;;22.30;53.70;;;;;;5109431;28;20024;-40
2021/05/12 11:17:11;;;;;;;1.80;0.65;;;22.20;54.40;;;;;;5107806;28;20127;-40
2021/05/12 11:19:47;;;;;;;4.32;0.82;;;22.20;55.10;;;;;;5105788;28;20092;-40
2021/05/12 11:22:30;;;;;;;1.73;0.60;;;22.20;55.30;;;;;;5099326;28;20050;-40
2021/05/12 11:25:01;;;;;;;0.88;0.47;;;22.20;55.20;;;;;;5103045;28;20044;-43
2021/05/12 11:32:30;;;;;;;0.95;0.60;;;22.20;55.20;;;;;;5106121;28;20050;-46
2021/05/12 11:34:56;;;;;;;3.70;0.90;;;22.30;55.20;;;;;;5088094;28;20114;-39
2021/05/12 11:37:24;;;;;;;5.78;0.68;;;22.30;54.90;;;;;;5086940;28;20052;-47
2021/05/12 11:39:50;;;;;;;1.00;0.60;;;22.30;54.80;;;;;;5105244;28;20036;-40
2021/05/12 11:42:32;;;;;;;0.60;0.40;;;22.40;54.80;;;;;;5107177;28;20027;-44
2021/05/12 11:45:13;;;;;;;3.08;0.50;;;22.40;55.00;;;;;;5106295;28;20521;-44
2021/05/12 11:47:39;;;;;;;1.00;0.52;;;22.50;55.10;;;;;;5084053;28;20039;-42
2021/05/12 11:50:26;;;;;;;0.60;0.40;;;22.50;54.70;;;;;;5103294;28;20077;-45
2021/05/12 11:52:52;;;;;;;2.20;0.60;;;22.50;54.90;;;;;;5106210;28;20035;-43
2021/05/12 11:55:21;;;;;;;2.85;0.60;;;22.50;54.60;;;;;;5084394;28;20416;-44
2021/05/12 11:57:47;;;;;;;3.58;0.80;;;22.50;54.90;;;;;;5106269;28;20035;-43
2021/05/12 12:00:19;;;;;;;3.83;0.70;;;22.60;54.90;;;;;;5104028;28;20028;-44
2021/05/12 12:02:58;;;;;;;1.52;0.60;;;22.50;54.80;;;;;;5070074;28;20039;-45
2021/05/12 12:05:27;;;;;;;1.42;0.60;;;22.60;54.70;;;;;;5087545;28;20027;-44
2021/05/12 12:08:11;;;;;;;3.20;1.10;;;22.50;54.80;;;;;;5106187;28;20035;-43
2021/05/12 12:10:37;;;;;;;4.28;0.73;;;22.60;54.90;;;;;;5101978;28;20027;-42
2021/05/12 12:13:03;;;;;;;1.80;0.80;;;22.50;54.80;;;;;;5105041;28;20050;-42
2021/05/12 12:15:28;;;;;;;0.95;0.50;;;22.50;54.90;;;;;;5104433;28;20078;-42
2021/05/12 12:17:54;;;;;;;2.45;0.65;;;22.60;54.90;;;;;;5085923;28;20035;-40
2021/05/12 12:20:20;;;;;;;2.97;0.70;;;22.50;55.00;;;;;;5105333;28;20063;-41
2021/05/12 12:22:49;;;;;;;1.70;0.85;;;22.60;55.20;;;;;;5087315;28;20042;-41
2021/05/12 12:25:15;;;;;;;2.25;0.60;;;22.50;55.80;;;;;;5103945;28;20023;-40
2021/05/12 12:27:41;;;;;;;1.95;0.90;;;22.50;55.30;;;;;;5106496;28;20027;-41
2021/05/12 12:30:08;;;;;;;1.13;0.60;;;22.50;55.20;;;;;;5088013;28;20128;-46
2021/05/12 12:32:35;;;;;;;1.40;0.60;;;22.50;55.40;;;;;;5097668;28;20714;-41
2021/05/12 12:35:01;;;;;;;4.53;0.60;;;22.50;55.80;;;;;;5099132;28;20480;-42
2021/05/12 12:37:34;;;;;;;1.20;0.65;;;22.50;55.50;;;;;;5103795;28;20061;-42
2021/05/12 12:40:08;;;;;;;1.30;0.68;;;22.50;55.70;;;;;;5100330;28;20103;-40
2021/05/12 12:42:33;;;;;;;;;;;22.50;55.80;;;;;;5102131;28;20035;-40
2021/05/12 12:45:04;;;;;;;4.25;0.50;;;22.50;55.90;;;;;;5106148;28;19931;-40
2021/05/12 12:47:30;;;;;;;1.52;0.50;;;22.50;56.60;;;;;;5103831;28;20024;-42
2021/05/12 12:50:00;;;;;;;1.95;0.47;;;22.50;56.50;;;;;;5102547;28;20467;-41
2021/05/12 12:52:37;;;;;;;1.27;0.40;;;22.50;56.10;;;;;;5103588;28;20099;-40
2021/05/12 12:55:15;;;;;;;4.13;0.60;;;22.60;55.60;;;;;;5101879;28;20079;-40
2021/05/12 12:57:56;;;;;;;0.82;0.50;;;22.60;55.70;;;;;;5099567;28;20047;-44
2021/05/12 13:00:27;;;;;;;1.83;0.60;;;22.60;55.80;;;;;;5097736;28;20062;-45